Time;durP1;ratioP1;P1;durP2;ratioP2;P2;SDS_P1;SDS_P2;PMS_P1;PMS_P2;Temp;Humidity;BMP_temperature;BMP_pressure;BME280_temperature;BME280_humidity;BME280_pressure;Samples;Min_cycle;Max_cycle;Signal;HPM_P1;HPM_P2
2022/05/21 00:00:04;;;;;;;1145.75;999.90;;;;;;;20.58;54.15;100559.97;688377;28;22406;-67
2022/05/21 00:00:26;;;;;;;1161.32;999.90;;;;;;;20.55;54.05;100561.34;686589;28;69444;-65
2022/05/21 00:00:47;;;;;;;1152.13;999.90;;;;;;;20.55;54.35;100579.69;686879;28;67381;-66
2022/05/21 00:01:08;;;;;;;1146.63;999.90;;;;;;;20.55;54.16;100572.31;664408;28;21721;-65
2022/05/21 00:01:31;;;;;;;1149.68;999.90;;;;;;;20.54;54.08;100573.38;691163;28;22387;-65
2022/05/21 00:01:52;;;;;;;1158.18;999.90;;;;;;;20.52;54.06;100564.56;689147;28;69364;-66
2022/05/21 00:02:14;;;;;;;1156.95;999.90;;;;;;;20.51;53.89;100569.22;688382;28;22144;-66
2022/05/21 00:02:35;;;;;;;1148.88;999.90;;;;;;;20.48;53.98;100557.91;682461;28;20213;-65
2022/05/21 00:02:57;;;;;;;1147.72;999.90;;;;;;;20.47;54.17;100568.06;682997;28;22384;-65
2022/05/21 00:03:18;;;;;;;1154.80;999.90;;;;;;;20.43;54.09;100566.88;685199;28;46336;-66
2022/05/21 00:03:40;;;;;;;1152.57;999.90;;;;;;;20.45;53.99;100572.94;685958;28;23501;-65
2022/05/21 00:04:04;;;;;;;1161.15;999.90;;;;;;;20.46;53.69;100571.03;685474;28;45335;-65
2022/05/21 00:04:25;;;;;;;1151.10;999.90;;;;;;;20.44;53.89;100554.84;685864;28;92364;-66
2022/05/21 00:04:47;;;;;;;1155.35;999.90;;;;;;;20.43;53.87;100566.88;688545;28;21533;-65
2022/05/21 00:05:09;;;;;;;1164.13;999.90;;;;;;;20.45;53.88;100574.84;688051;28;45671;-65
2022/05/21 00:05:33;;;;;;;1154.32;999.90;;;;;;;20.42;53.62;100567.94;687922;28;44396;-65
2022/05/21 00:05:57;;;;;;;1150.40;999.90;;;;;;;20.41;53.63;100574.53;686812;28;27433;-65
2022/05/21 00:06:19;;;;;;;1154.28;999.90;;;;;;;20.41;53.77;100588.25;686643;28;92170;-65
2022/05/21 00:06:41;;;;;;;1150.97;999.90;;;;;;;20.45;53.16;100583.91;687815;28;47670;-66
2022/05/21 00:07:03;;;;;;;1151.82;999.90;;;;;;;20.40;53.30;100575.59;687743;28;44372;-66
2022/05/21 00:07:24;;;;;;;1155.00;999.90;;;;;;;20.45;53.05;100600.38;687638;28;46275;-65
2022/05/21 00:07:45;;;;;;;1155.72;999.90;;;;;;;20.45;53.17;100586.66;688251;28;24224;-65
2022/05/21 00:08:11;;;;;;;1172.38;999.90;;;;;;;20.43;53.26;100588.81;688624;28;22412;-66
2022/05/21 00:08:33;;;;;;;1170.15;999.90;;;;;;;20.40;53.05;100572.03;682912;28;135665;-66
2022/05/21 00:08:54;;;;;;;1155.25;999.90;;;;;;;20.40;53.47;100583.81;686915;28;23468;-65
2022/05/21 00:09:16;;;;;;;1153.72;999.90;;;;;;;20.37;53.09;100584.31;687013;28;23514;-65
2022/05/21 00:09:37;;;;;;;1173.07;999.90;;;;;;;20.35;53.25;100592.78;685657;28;69279;-65
2022/05/21 00:09:59;;;;;;;1171.07;999.90;;;;;;;20.35;53.28;100595.53;688510;28;22375;-66
2022/05/21 00:10:21;;;;;;;1153.93;999.90;;;;;;;20.34;53.40;100584.81;687928;28;46377;-66
2022/05/21 00:10:43;;;;;;;1152.18;999.90;;;;;;;20.31;53.41;100599.00;687774;28;45253;-66
2022/05/21 00:11:04;;;;;;;1151.25;999.90;;;;;;;20.38;53.32;100587.91;686994;28;46674;-66
2022/05/21 00:11:25;;;;;;;1154.57;999.90;;;;;;;20.36;53.18;100590.91;689399;28;887;-65
2022/05/21 00:11:48;;;;;;;1167.38;999.90;;;;;;;20.33;53.23;100588.66;688241;28;21956;-67
2022/05/21 00:12:10;;;;;;;1158.57;999.90;;;;;;;20.32;53.32;100597.94;687889;28;46306;-66
2022/05/21 00:12:31;;;;;;;1168.38;999.90;;;;;;;20.30;53.43;100600.09;686901;28;45212;-65
2022/05/21 00:12:52;;;;;;;1168.97;999.90;;;;;;;20.29;53.43;100601.16;686155;28;46398;-65
2022/05/21 00:13:14;;;;;;;1158.57;999.90;;;;;;;20.25;53.49;100587.13;687350;28;46572;-65
2022/05/21 00:13:35;;;;;;;1176.53;999.90;;;;;;;20.25;53.47;100589.88;687584;28;46396;-65
2022/05/21 00:13:56;;;;;;;1182.25;999.90;;;;;;;20.20;53.52;100594.41;688717;28;21217;-65
2022/05/21 00:14:20;;;;;;;1181.03;999.90;;;;;;;20.22;53.66;100587.63;688654;28;22393;-65
2022/05/21 00:14:42;;;;;;;1178.93;999.90;;;;;;;20.18;53.61;100594.66;686911;28;69395;-65
2022/05/21 00:15:04;;;;;;;1179.50;999.90;;;;;;;20.17;53.65;100591.09;687462;28;46445;-65
2022/05/21 00:15:27;;;;;;;1165.78;999.90;;;;;;;20.14;53.90;100593.47;689180;28;968;-65
2022/05/21 00:15:49;;;;;;;1155.35;999.90;;;;;;;20.20;53.51;100586.19;687234;28;70334;-65
2022/05/21 00:16:11;;;;;;;1156.65;999.90;;;;;;;20.19;53.55;100593.59;688005;28;19770;-65
2022/05/21 00:16:32;;;;;;;1150.90;999.90;;;;;;;20.16;53.65;100594.06;687843;28;45239;-65
2022/05/21 00:16:53;;;;;;;1159.22;999.90;;;;;;;20.13;53.50;100595.38;689197;28;2175;-66
2022/05/21 00:17:14;;;;;;;1176.00;999.90;;;;;;;20.16;53.67;100596.81;687901;28;46225;-66
2022/05/21 00:17:37;;;;;;;1179.45;999.90;;;;;;;20.18;53.50;100586.44;687992;28;45350;-65
2022/05/21 00:17:58;;;;;;;1178.35;999.90;;;;;;;20.16;53.33;100594.91;688716;28;41011;-65
2022/05/21 00:18:19;;;;;;;1164.50;999.90;;;;;;;20.17;53.33;100590.25;688135;28;23500;-65
2022/05/21 00:18:40;;;;;;;1154.80;999.90;;;;;;;20.14;53.37;100577.88;688782;28;23411;-65
2022/05/21 00:19:04;;;;;;;1152.85;999.90;;;;;;;20.11;53.57;100597.56;689339;28;21502;-65
2022/05/21 00:19:25;;;;;;;1153.22;999.90;;;;;;;20.11;53.65;100597.56;686125;28;90120;-65
2022/05/21 00:19:46;;;;;;;1152.63;999.90;;;;;;;20.16;53.57;100585.84;689468;28;22403;-65
2022/05/21 00:20:47;;;;;;;1162.60;999.90;;;;;;;20.13;53.55;100583.59;688996;28;22498;-65
2022/05/21 00:20:51;;;;;;;1160.57;999.90;;;;;;;20.13;53.40;100595.38;685130;28;137556;-65
2022/05/21 00:21:12;;;;;;;1151.20;999.90;;;;;;;20.11;53.48;100597.56;686974;28;45191;-65
2022/05/21 00:21:33;;;;;;;1159.70;999.90;;;;;;;20.10;53.52;100597.78;688311;28;23483;-65
2022/05/21 00:21:55;;;;;;;1169.55;999.90;;;;;;;20.09;53.55;100598.84;689170;28;22394;-65
2022/05/21 00:22:16;;;;;;;1156.10;999.90;;;;;;;20.05;53.59;100598.53;687553;28;46245;-65
2022/05/21 00:22:37;;;;;;;1167.15;999.90;;;;;;;20.04;53.74;100588.63;687791;28;23465;-65
2022/05/21 00:23:07;;;;;;;1165.13;999.90;;;;;;;20.02;53.71;100585.31;688782;28;22398;-65
2022/05/21 00:23:30;;;;;;;1150.47;999.90;;;;;;;20.01;53.66;100597.34;684413;28;138498;-65
2022/05/21 00:23:52;;;;;;;1162.47;999.90;;;;;;;19.99;53.90;100599.50;686915;28;90133;-65
2022/05/21 00:24:13;;;;;;;1157.65;999.90;;;;;;;19.98;53.89;100578.63;688939;28;23293;-67
2022/05/21 00:24:34;;;;;;;1156.80;999.90;;;;;;;19.96;53.94;100576.13;688342;28;22456;-65
2022/05/21 00:24:56;;;;;;;1167.10;999.90;;;;;;;19.95;54.00;100584.59;688516;28;45226;-65
2022/05/21 00:25:18;;;;;;;1160.72;999.90;;;;;;;19.96;53.89;100595.31;687225;28;67550;-66
2022/05/21 00:25:40;;;;;;;1158.30;999.90;;;;;;;19.96;53.90;100599.97;688507;28;23506;-66
2022/05/21 00:26:03;;;;;;;1135.82;999.90;;;;;;;19.98;53.87;100603.31;687817;28;44365;-66
2022/05/21 00:26:25;;;;;;;1174.38;999.90;;;;;;;19.97;53.78;100601.66;686624;28;69505;-65
2022/05/21 00:26:47;;;;;;;1175.03;999.90;;;;;;;20.02;53.74;100596.28;688299;28;45198;-66
2022/05/21 00:27:08;;;;;;;1173.80;999.90;;;;;;;20.00;53.75;100609.41;688525;28;46181;-65
2022/05/21 00:27:29;;;;;;;1180.55;999.90;;;;;;;19.97;54.08;100591.50;689770;28;22371;-65
2022/05/21 00:27:51;;;;;;;1184.28;999.90;;;;;;;19.96;53.66;100600.81;689997;28;22370;-65
2022/05/21 00:28:12;;;;;;;1185.20;999.90;;;;;;;19.95;53.65;100604.63;689020;28;46325;-65
2022/05/21 00:28:35;;;;;;;1182.97;999.90;;;;;;;19.95;53.99;100601.03;689009;28;44358;-65
2022/05/21 00:28:57;;;;;;;1181.78;999.90;;;;;;;19.91;54.05;100603.44;688100;28;69450;-65
2022/05/21 00:29:20;;;;;;;1182.70;999.90;;;;;;;19.87;54.04;100596.78;688599;28;36418;-65
2022/05/21 00:29:41;;;;;;;1186.13;999.90;;;;;;;19.90;54.28;100607.25;686663;28;69388;-66
2022/05/21 00:30:02;;;;;;;1190.65;999.90;;;;;;;19.90;54.14;100617.41;689461;28;22407;-65
2022/05/21 00:30:24;;;;;;;1189.57;999.90;;;;;;;19.89;54.17;100586.41;688052;28;48114;-65
2022/05/21 00:30:46;;;;;;;1186.90;999.90;;;;;;;19.91;54.23;100603.44;688121;28;46420;-65
2022/05/21 00:31:09;;;;;;;1186.60;999.90;;;;;;;19.92;53.96;100609.75;687241;28;46256;-65
2022/05/21 00:31:30;;;;;;;1189.50;999.90;;;;;;;19.92;54.17;100609.75;686668;28;69549;-66
2022/05/21 00:31:52;;;;;;;1186.80;999.90;;;;;;;19.90;54.04;100601.78;689198;28;23421;-66
2022/05/21 00:32:14;;;;;;;1190.13;999.90;;;;;;;19.93;54.00;100608.69;687874;28;47123;-66
2022/05/21 00:32:35;;;;;;;1183.13;999.90;;;;;;;19.92;53.84;100598.78;687157;28;46256;-65
2022/05/21 00:32:57;;;;;;;1194.68;999.90;;;;;;;19.92;53.88;100602.38;688826;28;22198;-65
2022/05/21 00:33:18;;;;;;;1194.47;999.90;;;;;;;19.91;53.90;100608.09;688083;28;45290;-65
2022/05/21 00:33:41;;;;;;;1190.28;999.90;;;;;;;19.91;53.85;100606.19;688330;28;22555;-65
2022/05/21 00:34:03;;;;;;;1190.53;999.90;;;;;;;19.90;53.87;100607.25;687675;28;67475;-65
2022/05/21 00:34:25;;;;;;;1193.15;999.90;;;;;;;19.90;53.84;100618.22;688040;28;46349;-65
2022/05/21 00:34:46;;;;;;;1196.30;999.90;;;;;;;19.92;54.03;100609.75;687491;28;47416;-64
2022/05/21 00:35:08;;;;;;;1194.45;999.90;;;;;;;19.92;53.85;100609.75;689157;28;23453;-65
2022/05/21 00:35:39;;;;;;;1197.82;999.90;;;;;;;19.91;53.89;100617.16;687311;28;61403;-65
2022/05/21 00:36:00;;;;;;;1192.90;999.90;;;;;;;19.91;53.72;100617.16;687172;28;46235;-65
2022/05/21 00:36:21;;;;;;;1192.00;999.90;;;;;;;19.90;53.47;100622.88;688517;28;21517;-65
2022/05/21 00:36:42;;;;;;;1190.07;999.90;;;;;;;19.89;53.73;100623.94;687860;28;46361;-65
2022/05/21 00:37:05;;;;;;;1195.03;999.90;;;;;;;19.90;53.80;100617.41;688527;28;22185;-66
2022/05/21 00:37:26;;;;;;;1194.00;999.90;;;;;;;19.88;53.51;100628.59;686468;28;46469;-66
2022/05/21 00:37:47;;;;;;;1193.88;999.90;;;;;;;19.86;53.60;100624.41;687781;28;21332;-65
2022/05/21 00:38:09;;;;;;;1194.50;999.90;;;;;;;19.84;53.59;100623.84;689821;28;46341;-66
2022/05/21 00:38:32;;;;;;;1191.03;999.90;;;;;;;19.86;53.39;100633.50;689521;28;69290;-66
2022/05/21 00:38:53;;;;;;;1190.72;999.90;;;;;;;19.88;53.28;100616.81;690612;28;44371;-65
2022/05/21 00:39:14;;;;;;;1190.82;999.90;;;;;;;19.88;53.08;100636.81;691483;28;21520;-65
2022/05/21 00:39:36;;;;;;;1190.95;999.90;;;;;;;19.88;52.95;100628.59;690247;28;21531;-65
2022/05/21 00:39:57;;;;;;;1192.30;999.90;;;;;;;19.88;52.94;100622.28;687654;28;42530;-65
2022/05/21 00:40:18;;;;;;;1194.32;999.90;;;;;;;19.88;52.74;100611.34;686292;28;22103;-65
2022/05/21 00:40:40;;;;;;;1191.10;999.90;;;;;;;19.87;52.76;100626.09;688746;28;46183;-64
2022/05/21 00:41:02;;;;;;;1192.95;999.90;;;;;;;19.85;52.73;100625.50;688958;28;21550;-66
2022/05/21 00:41:23;;;;;;;1191.53;999.90;;;;;;;19.87;52.88;100626.09;688160;28;68338;-65
2022/05/21 00:41:45;;;;;;;1191.72;999.90;;;;;;;19.88;52.36;100625.03;689756;28;23555;-65
2022/05/21 00:42:07;;;;;;;1191.50;999.90;;;;;;;19.86;52.77;100638.13;688420;28;21593;-64
2022/05/21 00:42:29;;;;;;;1194.03;999.90;;;;;;;19.84;52.84;100638.38;686983;28;46275;-66
2022/05/21 00:42:50;;;;;;;1193.75;999.90;;;;;;;19.82;52.90;100639.69;686705;28;46400;-65
2022/05/21 00:43:33;;;;;;;1191.00;999.90;;;;;;;19.81;52.80;100641.59;689321;28;21459;-64
2022/05/21 00:43:57;;;;;;;1191.20;999.90;;;;;;;19.79;52.85;100643.75;684984;28;138598;-65
2022/05/21 00:44:18;;;;;;;1192.57;999.90;;;;;;;19.78;52.94;100636.59;686027;28;90705;-65
2022/05/21 00:44:39;;;;;;;1192.97;999.90;;;;;;;19.78;53.05;100636.59;688318;28;1600;-65
2022/05/21 00:45:00;;;;;;;1191.93;999.90;;;;;;;19.78;52.98;100648.41;688803;28;21607;-64
2022/05/21 00:45:21;;;;;;;1190.20;999.90;;;;;;;19.85;52.36;100644.69;688923;28;22434;-65
2022/05/21 00:45:43;;;;;;;1191.47;999.90;;;;;;;19.85;52.40;100637.31;688712;28;22702;-65
2022/05/21 00:46:08;;;;;;;1191.18;999.90;;;;;;;19.88;52.30;100652.44;687096;28;47566;-65
2022/05/21 00:46:31;;;;;;;1191.17;999.90;;;;;;;19.84;52.26;100643.84;685317;28;115083;-65
2022/05/21 00:46:52;;;;;;;1190.47;999.90;;;;;;;19.82;52.61;100656.97;686888;28;93283;-65
2022/05/21 00:47:14;;;;;;;1187.25;999.90;;;;;;;19.88;52.21;100645.03;691145;28;24743;-65
2022/05/21 00:47:36;;;;;;;1184.88;999.90;;;;;;;19.89;52.18;100656.81;690472;28;45190;-66
2022/05/21 00:47:57;;;;;;;1185.22;999.90;;;;;;;19.86;52.26;100644.47;691170;28;23471;-65
2022/05/21 00:48:18;;;;;;;1186.68;999.90;;;;;;;19.84;52.09;100645.75;690341;28;46376;-64
2022/05/21 00:48:40;;;;;;;1190.35;999.90;;;;;;;19.79;52.39;100655.53;691565;28;1085;-65
2022/05/21 00:49:06;;;;;;;1189.57;999.90;;;;;;;19.77;52.50;100654.13;689200;28;45243;-65
2022/05/21 00:49:28;;;;;;;1186.97;999.90;;;;;;;19.82;52.55;100664.38;683889;28;137124;-66
2022/05/21 00:49:50;;;;;;;1188.53;999.90;;;;;;;19.82;52.21;100639.69;687435;28;43877;-65
2022/05/21 00:50:14;;;;;;;1189.50;999.90;;;;;;;19.78;52.19;100656.63;687753;28;43434;-65
2022/05/21 00:50:35;;;;;;;1188.20;999.90;;;;;;;19.78;52.31;100648.41;686595;28;69432;-65
2022/05/21 00:50:56;;;;;;;1188.32;999.90;;;;;;;19.75;52.39;100651.59;687467;28;22240;-66
2022/05/21 00:51:21;;;;;;;1191.60;999.90;;;;;;;19.73;52.28;100645.53;687306;28;44364;-65
2022/05/21 00:51:44;;;;;;;1190.63;999.90;;;;;;;19.76;52.39;100661.50;685188;28;112404;-65
2022/05/21 00:52:10;;;;;;;1192.30;999.90;;;;;;;19.74;52.11;100655.41;687094;28;69430;-65
2022/05/21 00:52:33;;;;;;;1191.38;999.90;;;;;;;19.75;52.21;100689.94;683903;28;137934;-65
2022/05/21 00:52:55;;;;;;;1191.70;999.90;;;;;;;19.77;51.95;100671.38;687437;28;44355;-65
2022/05/21 00:53:17;;;;;;;1191.78;999.90;;;;;;;19.81;51.49;100649.81;687259;28;67474;-65
2022/05/21 00:53:39;;;;;;;1188.93;999.90;;;;;;;19.81;51.60;100658.03;688484;28;22362;-66
2022/05/21 00:54:01;;;;;;;1187.65;999.90;;;;;;;19.78;51.47;100656.63;687971;28;46662;-65
2022/05/21 00:54:28;;;;;;;1189.90;999.90;;;;;;;19.74;51.64;100651.84;687343;28;67467;-65
2022/05/21 00:54:52;;;;;;;1190.57;999.90;;;;;;;19.72;51.77;100654.00;684138;28;137729;-65
2022/05/21 00:55:16;;;;;;;1189.70;999.90;;;;;;;19.71;51.82;100650.38;686621;28;92285;-65
2022/05/21 00:55:37;;;;;;;1191.03;999.90;;;;;;;19.73;51.74;100659.22;685761;28;93176;-65
2022/05/21 00:55:58;;;;;;;1189.45;999.90;;;;;;;19.72;51.41;100663.03;688128;28;23465;-66
2022/05/21 00:56:21;;;;;;;1188.43;999.90;;;;;;;19.70;51.71;100661.59;688734;28;21516;-66
2022/05/21 00:56:44;;;;;;;1191.07;999.90;;;;;;;19.67;51.85;100671.13;685736;28;69562;-65
2022/05/21 00:57:11;;;;;;;1188.72;999.90;;;;;;;19.67;51.87;100659.31;687160;28;69231;-65
2022/05/21 00:57:34;;;;;;;1187.35;999.90;;;;;;;19.66;51.90;100669.47;684482;28;137502;-65
2022/05/21 01:00:05;;;;;;;1192.55;999.90;;;;;;;19.65;51.94;100675.19;684656;28;138364;-65
2022/05/21 01:00:26;;;;;;;1188.32;999.90;;;;;;;19.60;51.85;100682.19;684592;28;138174;-65
2022/05/21 01:00:47;;;;;;;1186.88;999.90;;;;;;;19.63;51.82;100673.50;691348;28;22456;-65
2022/05/21 01:01:10;;;;;;;1187.22;999.90;;;;;;;19.62;51.96;100685.56;689993;28;46261;-65
2022/05/21 01:01:35;;;;;;;1184.80;999.90;;;;;;;19.67;51.88;100693.06;688486;28;69552;-65
2022/05/21 01:01:59;;;;;;;1178.63;999.90;;;;;;;19.67;51.67;100686.72;688018;28;113518;-65
2022/05/21 01:02:23;;;;;;;1185.88;999.90;;;;;;;19.65;51.65;100697.09;688142;28;89457;-64
2022/05/21 01:02:47;;;;;;;1149.60;999.90;;;;;;;19.63;51.64;100680.91;687360;28;68359;-65
2022/05/21 01:03:09;;;;;;;1124.65;999.90;;;;;;;19.65;51.89;100686.97;685475;28;90242;-66
2022/05/21 01:03:30;;;;;;;1177.72;999.90;;;;;;;19.64;51.68;100679.84;687788;28;46309;-65
2022/05/21 01:03:52;;;;;;;1150.75;999.90;;;;;;;19.63;51.63;100687.19;687735;28;45663;-65
2022/05/21 01:04:15;;;;;;;1099.75;999.90;;;;;;;19.65;51.78;100702.59;687990;28;47359;-65
2022/05/21 01:04:37;;;;;;;895.72;841.17;;;;;;;19.67;51.70;100701.28;686232;28;44811;-65
2022/05/21 01:04:59;;;;;;;466.40;439.40;;;;;;;19.68;51.49;100702.09;687955;28;46157;-65
2022/05/21 01:05:23;;;;;;;358.20;338.02;;;;;;;19.68;51.61;100689.22;686975;28;70315;-65
2022/05/21 01:05:46;;;;;;;372.92;351.90;;;;;;;19.66;51.41;100694.13;686789;28;68301;-65
2022/05/21 01:06:07;;;;;;;723.35;680.00;;;;;;;19.65;51.47;100699.84;686570;28;67477;-65
2022/05/21 01:06:28;;;;;;;843.28;792.28;;;;;;;19.68;51.42;100711.16;688486;28;21526;-65
2022/05/21 01:06:50;;;;;;;1030.78;967.17;;;;;;;19.72;51.06;100682.22;688715;28;22414;-65
2022/05/21 01:07:12;;;;;;;940.08;882.42;;;;;;;19.71;50.99;100687.94;688125;28;46293;-65
2022/05/21 01:07:35;;;;;;;831.25;781.10;;;;;;;19.68;50.96;100693.88;687825;28;44390;-65
2022/05/21 01:07:58;;;;;;;757.63;712.20;;;;;;;19.67;51.10;100704.03;686856;28;69439;-65
2022/05/21 01:08:21;;;;;;;1054.35;989.17;;;;;;;19.63;51.18;100700.06;686822;28;90721;-65
2022/05/21 01:08:42;;;;;;;1095.95;999.90;;;;;;;19.62;51.22;100706.63;687247;28;69434;-66
2022/05/21 01:09:03;;;;;;;1065.38;996.05;;;;;;;19.63;51.28;100702.81;688825;28;21515;-65
2022/05/21 01:09:24;;;;;;;1095.82;999.90;;;;;;;19.60;51.42;100704.13;688212;28;23719;-66
2022/05/21 01:09:51;;;;;;;951.60;892.85;;;;;;;19.59;51.31;100699.72;687999;28;21954;-65
2022/05/21 01:10:15;;;;;;;1157.18;999.90;;;;;;;19.56;51.46;100707.56;685751;28;110030;-66
2022/05/21 01:10:39;;;;;;;1176.07;999.90;;;;;;;19.57;51.58;100709.25;686036;28;90181;-65
2022/05/21 01:11:06;;;;;;;1137.68;999.90;;;;;;;19.57;51.44;100701.84;683848;28;138142;-65
2022/05/21 01:11:29;;;;;;;1148.03;999.90;;;;;;;19.57;51.69;100726.50;685214;28;115286;-65
2022/05/21 01:11:50;;;;;;;1162.82;999.90;;;;;;;19.54;51.39;100715.19;689214;28;69555;-65
2022/05/21 01:12:11;;;;;;;1027.35;963.67;;;;;;;19.59;51.61;100709.84;692132;28;1532;-65
2022/05/21 01:12:36;;;;;;;1079.75;997.78;;;;;;;19.62;51.57;100714.84;688838;28;22380;-66
2022/05/21 01:12:58;;;;;;;1180.13;999.90;;;;;;;19.61;51.58;100707.72;685037;28;114993;-65
2022/05/21 01:13:21;;;;;;;1189.63;999.90;;;;;;;19.61;51.61;100726.88;688580;28;22392;-65
2022/05/21 01:13:45;;;;;;;1186.88;999.90;;;;;;;19.65;51.47;100705.31;684745;28;92951;-66
2022/05/21 01:14:09;;;;;;;1186.80;999.90;;;;;;;19.63;51.35;100717.34;686803;28;90456;-65
2022/05/21 01:14:30;;;;;;;1198.10;999.90;;;;;;;19.63;51.39;100713.78;686800;28;69605;-66
2022/05/21 01:14:53;;;;;;;1194.35;999.90;;;;;;;19.65;51.27;100716.28;687662;28;45383;-66
2022/05/21 01:15:19;;;;;;;1186.43;999.90;;;;;;;19.62;51.49;100717.56;688062;28;43204;-66
2022/05/21 01:15:46;;;;;;;1161.10;999.90;;;;;;;19.62;51.54;100703.88;684346;28;138066;-66
2022/05/21 01:16:07;;;;;;;1182.18;999.90;;;;;;;19.68;51.31;100718.53;684250;28;137966;-65
2022/05/21 01:16:29;;;;;;;1017.28;953.67;;;;;;;19.67;51.36;100722.34;686923;28;44838;-65
2022/05/21 01:16:51;;;;;;;977.50;916.63;;;;;;;19.66;51.37;100724.25;687656;28;45219;-65
2022/05/21 01:17:12;;;;;;;1046.78;981.55;;;;;;;19.66;51.02;100724.25;688792;28;23476;-65
2022/05/21 01:17:33;;;;;;;668.45;628.10;;;;;;;19.62;51.22;100710.22;688669;28;21605;-65
2022/05/21 01:17:55;;;;;;;531.67;499.53;;;;;;;19.62;51.52;100717.56;689710;28;46856;-66
2022/05/21 01:18:16;;;;;;;489.63;460.90;;;;;;;19.61;51.39;100722.22;689728;28;67062;-66
2022/05/21 01:18:38;;;;;;;385.48;364.00;;;;;;;19.63;51.36;100720.06;690843;28;22390;-65
2022/05/21 01:18:59;;;;;;;330.83;312.75;;;;;;;19.64;51.31;100720.94;691458;28;21516;-66
2022/05/21 01:19:22;;;;;;;372.65;351.42;;;;;;;19.65;51.35;100710.81;691391;28;22422;-65
2022/05/21 01:19:55;;;;;;;413.37;389.80;;;;;;;19.62;51.35;100728.53;687292;28;92241;-65
2022/05/21 01:20:19;;;;;;;481.70;454.33;;;;;;;19.61;51.49;100727.72;684198;28;137364;-65
2022/05/21 01:20:44;;;;;;;545.75;514.10;;;;;;;19.62;51.32;100725.78;686236;28;92256;-65
2022/05/21 01:21:07;;;;;;;505.20;476.17;;;;;;;19.65;51.37;100729.97;687262;28;115190;-65
2022/05/21 01:21:28;;;;;;;514.53;484.52;;;;;;;19.65;51.30;100708.06;689824;28;44409;-66
2022/05/21 01:21:50;;;;;;;549.60;517.88;;;;;;;19.59;51.33;100724.38;691252;28;22402;-66
2022/05/21 01:22:11;;;;;;;557.97;524.33;;;;;;;19.61;51.39;100724.16;689810;28;68322;-65
2022/05/21 01:22:40;;;;;;;672.83;630.92;;;;;;;19.56;51.31;100724.00;690300;28;23566;-65
2022/05/21 01:23:01;;;;;;;687.88;646.85;;;;;;;19.49;51.75;100712.34;686038;28;136288;-65
2022/05/21 01:23:23;;;;;;;624.42;587.65;;;;;;;19.51;51.69;100726.63;689129;28;22402;-65
2022/05/21 01:23:44;;;;;;;644.70;606.25;;;;;;;19.51;51.68;100726.63;687073;28;69500;-66
2022/05/21 01:24:06;;;;;;;676.87;636.40;;;;;;;19.50;51.84;100724.94;687918;28;47157;-65
2022/05/21 01:24:28;;;;;;;632.15;594.85;;;;;;;19.49;51.70;100718.66;685647;28;67323;-66
2022/05/21 01:24:49;;;;;;;602.63;566.10;;;;;;;19.49;52.04;100720.56;687236;28;46182;-65
2022/05/21 01:25:13;;;;;;;599.30;562.78;;;;;;;19.50;51.83;100735.91;688394;28;46535;-65
2022/05/21 01:25:37;;;;;;;664.67;625.15;;;;;;;19.51;51.79;100723.88;686255;28;92322;-66
2022/05/21 01:26:01;;;;;;;730.17;685.97;;;;;;;19.49;51.84;100717.81;684536;28;115592;-66
2022/05/21 01:26:23;;;;;;;837.05;785.47;;;;;;;19.49;51.68;100731.53;687184;28;69469;-66
2022/05/21 01:26:44;;;;;;;818.53;768.65;;;;;;;19.50;51.75;100734.03;687110;28;46299;-65
2022/05/21 01:27:05;;;;;;;809.78;760.00;;;;;;;19.51;51.83;100740.31;688206;28;23635;-67
2022/05/21 01:27:28;;;;;;;800.00;750.13;;;;;;;19.50;51.89;100741.38;689145;28;22439;-65
2022/05/21 01:27:51;;;;;;;823.72;771.70;;;;;;;19.49;51.95;100718.66;687360;28;69420;-65
2022/05/21 01:28:14;;;;;;;631.25;592.15;;;;;;;19.51;51.85;100737.59;686362;28;90815;-65
2022/05/21 01:28:37;;;;;;;822.58;770.97;;;;;;;19.49;51.94;100729.59;686083;28;91724;-66
2022/05/21 01:28:59;;;;;;;1135.68;999.90;;;;;;;19.52;51.88;100742.00;687896;28;46298;-65
2022/05/21 01:29:23;;;;;;;1197.85;999.90;;;;;;;19.50;51.86;100750.47;688476;28;46403;-65
2022/05/21 01:29:44;;;;;;;1191.43;999.90;;;;;;;19.52;52.00;100748.31;685919;28;92256;-65
2022/05/21 01:30:07;;;;;;;1219.90;999.90;;;;;;;19.50;52.12;100744.13;688846;28;21300;-66
2022/05/21 01:30:32;;;;;;;1235.07;999.90;;;;;;;19.49;52.22;100737.00;686831;28;69554;-66
2022/05/21 01:30:56;;;;;;;1218.20;999.90;;;;;;;19.49;52.08;100756.16;685764;28;115657;-66
2022/05/21 01:31:17;;;;;;;1185.80;999.90;;;;;;;19.47;52.13;100742.72;685354;28;111853;-65
2022/05/21 01:31:39;;;;;;;1198.70;999.90;;;;;;;19.45;52.28;100753.03;687566;28;46727;-65
2022/05/21 01:32:00;;;;;;;1212.88;999.90;;;;;;;19.45;52.17;100750.31;689528;28;23491;-65
2022/05/21 01:32:22;;;;;;;1192.50;999.90;;;;;;;19.44;52.27;100751.41;688069;28;22397;-66
2022/05/21 01:32:44;;;;;;;1223.35;999.90;;;;;;;19.44;52.41;100749.47;685721;28;67480;-65
2022/05/21 01:33:11;;;;;;;1208.82;999.90;;;;;;;19.43;52.49;100749.72;685547;28;92150;-65
2022/05/21 01:33:34;;;;;;;1235.25;999.90;;;;;;;19.43;52.56;100744.25;685198;28;115124;-66
2022/05/21 01:33:56;;;;;;;1237.65;999.90;;;;;;;19.42;52.25;100745.34;686385;28;90703;-66
2022/05/21 01:34:20;;;;;;;1237.97;999.90;;;;;;;19.40;52.49;100744.72;687878;28;47498;-65
2022/05/21 01:34:41;;;;;;;1209.18;999.90;;;;;;;19.40;52.63;100753.78;686287;28;92632;-66
2022/05/21 01:35:04;;;;;;;1182.88;999.90;;;;;;;19.40;52.60;100758.41;688792;28;22380;-66
2022/05/21 01:35:25;;;;;;;1204.28;999.90;;;;;;;19.39;52.83;100756.75;687555;28;46365;-66
2022/05/21 01:35:47;;;;;;;1228.43;999.90;;;;;;;19.39;52.68;100737.59;688837;28;22580;-65
2022/05/21 01:36:08;;;;;;;1230.88;999.90;;;;;;;19.40;52.75;100747.44;687558;28;46528;-65
2022/05/21 01:36:30;;;;;;;1224.15;999.90;;;;;;;19.39;52.46;100746.63;687401;28;45155;-65
2022/05/21 01:36:53;;;;;;;1185.30;999.90;;;;;;;19.39;52.65;100751.28;687222;28;67471;-65
2022/05/21 01:37:14;;;;;;;1195.07;999.90;;;;;;;19.39;52.61;100754.84;688170;28;46374;-65
2022/05/21 01:37:38;;;;;;;1214.13;999.90;;;;;;;19.36;52.94;100763.53;689135;28;925;-65
2022/05/21 01:37:59;;;;;;;1189.32;999.90;;;;;;;19.34;52.91;100754.72;687001;28;69540;-65
2022/05/21 01:38:22;;;;;;;1185.72;999.90;;;;;;;19.32;53.25;100761.50;688462;28;22452;-65
2022/05/21 01:38:45;;;;;;;1200.75;999.90;;;;;;;19.32;53.36;100765.06;686845;28;69768;-65
2022/05/21 01:39:06;;;;;;;1201.22;999.90;;;;;;;19.29;53.51;100770.16;686408;28;92234;-65
2022/05/21 01:39:27;;;;;;;1205.68;999.90;;;;;;;19.30;53.88;100767.19;687691;28;44296;-66
2022/05/21 01:39:48;;;;;;;1197.87;999.90;;;;;;;19.29;53.75;100768.25;687528;28;46408;-65
2022/05/21 01:40:10;;;;;;;1201.57;999.90;;;;;;;19.34;53.82;100757.47;687727;28;47574;-65
2022/05/21 01:40:33;;;;;;;1208.32;999.90;;;;;;;19.33;54.26;100765.91;687467;28;46388;-65
2022/05/21 01:40:54;;;;;;;1229.63;999.90;;;;;;;19.33;54.07;100764.00;687015;28;44356;-65
2022/05/21 01:41:15;;;;;;;1243.78;999.90;;;;;;;19.30;54.44;100775.41;688020;28;23423;-65
2022/05/21 01:41:36;;;;;;;1240.65;999.90;;;;;;;19.24;54.86;100759.91;688747;28;22281;-65
2022/05/21 01:41:58;;;;;;;1240.70;999.90;;;;;;;19.19;55.07;100768.84;688735;28;23490;-65